createdAt,value
2022-10-21T00:02:28.709Z,4.93
2022-10-21T00:07:31.777Z,5.50
2022-10-21T00:12:38.249Z,5.70
2022-10-21T00:17:44.247Z,6.23
2022-10-21T00:22:47.329Z,5.77
2022-10-21T00:27:50.465Z,5.70
2022-10-21T00:32:58.123Z,6.07
2022-10-21T00:38:03.732Z,6.30
2022-10-21T00:43:06.803Z,6.53
2022-10-21T00:48:20.028Z,6.83
2022-10-21T00:53:24.005Z,6.33
2022-10-21T00:58:30.690Z,6.47
2022-10-21T01:03:36.712Z,6.67
2022-10-21T01:08:44.337Z,6.57
2022-10-21T01:14:00.540Z,6.40
2022-10-21T01:19:23.332Z,6.33
2022-10-21T01:24:51.461Z,6.67
2022-10-21T01:30:32.684Z,6.30
2022-10-21T01:35:44.397Z,7.37
2022-10-21T01:40:55.987Z,7.23
2022-10-21T01:46:03.405Z,6.27
2022-10-21T01:51:11.038Z,6.47
2022-10-21T01:56:16.607Z,6.80
2022-10-21T02:01:32.646Z,6.47
2022-10-21T02:06:35.974Z,7.33
2022-10-21T02:11:42.660Z,6.80
2022-10-21T02:16:48.921Z,6.87
2022-10-21T02:21:54.517Z,6.80
2022-10-21T02:26:57.680Z,6.60
2022-10-21T02:32:19.728Z,6.17
2022-10-21T02:37:28.537Z,6.03
2022-10-21T02:42:38.913Z,5.90
2022-10-21T02:47:47.763Z,6.40
2022-10-21T02:52:52.582Z,6.33
2022-10-21T02:57:55.792Z,5.93
2022-10-21T03:03:00.429Z,6.50
2022-10-21T03:08:05.338Z,6.07
2022-10-21T03:13:08.402Z,6.40
2022-10-21T03:18:12.836Z,5.93
2022-10-21T03:23:15.911Z,6.27
2022-10-21T03:28:18.984Z,7.13
2022-10-21T03:33:23.421Z,6.40
2022-10-21T03:38:26.582Z,6.57
2022-10-21T03:43:29.724Z,6.37
2022-10-21T03:48:34.212Z,6.50
2022-10-21T03:53:43.157Z,6.67
2022-10-21T03:58:46.723Z,6.50
2022-10-21T04:03:51.149Z,6.20
2022-10-21T04:08:54.279Z,6.30
2022-10-21T04:13:57.445Z,6.13
2022-10-21T04:19:02.332Z,6.73
2022-10-21T04:24:05.933Z,6.07
2022-10-21T04:29:09.097Z,6.33
2022-10-21T04:34:14.657Z,6.17
2022-10-21T04:39:17.732Z,6.03
2022-10-21T04:44:20.771Z,6.13
2022-10-21T04:49:25.201Z,6.13
2022-10-21T04:54:28.338Z,5.80
2022-10-21T04:59:31.428Z,5.70
2022-10-21T05:04:35.893Z,6.00
2022-10-21T05:09:39.025Z,6.43
2022-10-21T05:14:42.100Z,6.60
2022-10-21T05:19:46.575Z,7.07
2022-10-21T05:24:49.838Z,7.17
2022-10-21T05:29:52.901Z,8.00
2022-10-21T05:34:57.336Z,7.63
2022-10-21T05:40:00.504Z,7.47
2022-10-21T05:45:03.577Z,6.87
2022-10-21T05:50:09.495Z,7.20
2022-10-21T05:55:12.664Z,6.70
2022-10-21T06:00:16.036Z,6.40
2022-10-21T06:05:20.999Z,6.57
2022-10-21T06:10:28.164Z,6.93
2022-10-21T06:15:32.227Z,6.43
2022-10-21T06:20:37.133Z,6.93
2022-10-21T06:25:40.329Z,6.50
2022-10-21T06:30:43.392Z,6.47
2022-10-21T06:35:48.432Z,6.80
2022-10-21T06:40:51.558Z,6.53
2022-10-21T06:45:54.634Z,7.37
2022-10-21T06:51:00.212Z,6.27
2022-10-21T06:56:05.035Z,6.50
2022-10-21T07:01:16.694Z,6.60
2022-10-21T07:11:36.687Z,7.13
2022-10-21T07:16:40.090Z,7.77
2022-10-21T07:21:44.614Z,7.63
2022-10-21T07:26:48.020Z,8.07
2022-10-21T07:31:51.087Z,7.97
2022-10-21T07:36:55.635Z,8.77
2022-10-21T07:41:59.516Z,8.03
2022-10-21T07:47:02.764Z,8.17
2022-10-21T07:52:07.296Z,8.80
2022-10-21T07:57:10.434Z,8.67
2022-10-21T08:02:15.397Z,8.80
2022-10-21T08:07:19.869Z,9.43
2022-10-21T08:12:22.932Z,9.43
2022-10-21T08:17:26.125Z,8.93
2022-10-21T08:22:30.549Z,9.30
2022-10-21T08:27:34.798Z,9.53
2022-10-21T08:32:38.196Z,9.13
2022-10-21T08:37:42.820Z,8.23
2022-10-21T08:42:46.889Z,8.77
2022-10-21T08:47:55.139Z,8.83
2022-10-21T08:53:05.841Z,8.63
2022-10-21T08:58:16.242Z,8.53
2022-10-21T09:03:28.226Z,8.30
2022-10-21T09:08:39.425Z,8.43
2022-10-21T09:14:22.182Z,8.07
2022-10-21T09:19:35.713Z,8.23
2022-10-21T09:24:48.211Z,8.27
2022-10-21T09:29:55.916Z,8.13
2022-10-21T09:35:04.123Z,8.00
2022-10-21T09:40:18.897Z,6.50
2022-10-21T09:45:27.177Z,6.47
2022-10-21T09:55:37.349Z,5.97
2022-10-21T10:00:49.074Z,6.10
2022-10-21T10:05:52.178Z,5.20
2022-10-21T10:11:03.992Z,6.10
2022-10-21T10:16:16.744Z,6.20
2022-10-21T10:21:20.876Z,6.07
2022-10-21T10:26:31.522Z,6.23
2022-10-21T10:31:36.337Z,6.97
2022-10-21T10:36:41.549Z,7.00
2022-10-21T10:41:50.589Z,7.17
2022-10-21T10:46:56.717Z,6.97
2022-10-21T10:52:15.360Z,7.20
2022-10-21T10:57:34.013Z,7.10
2022-10-21T11:02:55.790Z,7.80
2022-10-21T11:08:02.582Z,7.97
2022-10-21T11:13:12.578Z,6.93
2022-10-21T11:18:24.430Z,6.80
2022-10-21T11:24:06.281Z,6.87
2022-10-21T11:29:25.739Z,7.13
2022-10-21T11:34:41.501Z,7.80
2022-10-21T11:39:49.426Z,7.97
2022-10-21T11:45:07.414Z,7.87
2022-10-21T11:50:21.972Z,7.77
2022-10-21T11:55:39.860Z,8.37
2022-10-21T12:00:53.694Z,8.03
2022-10-21T12:06:03.111Z,7.67
2022-10-21T12:11:10.833Z,7.20
2022-10-21T12:16:19.362Z,7.07
2022-10-21T12:21:26.356Z,7.93
2022-10-21T12:26:36.438Z,8.47
2022-10-21T12:31:48.815Z,9.00
2022-10-21T12:36:54.732Z,9.30
2022-10-21T12:42:06.589Z,9.83
2022-10-21T12:47:26.616Z,9.50
2022-10-21T12:52:30.752Z,9.13
2022-10-21T12:57:37.215Z,8.90
2022-10-21T13:03:00.366Z,8.53
2022-10-21T13:08:27.250Z,10.40
2022-10-21T13:13:35.813Z,8.13
2022-10-21T13:19:00.528Z,9.07
2022-10-21T13:24:23.740Z,6.97
2022-10-21T13:29:46.279Z,6.70
2022-10-21T13:35:00.191Z,6.40
2022-10-21T13:40:07.056Z,6.13
2022-10-21T13:45:25.260Z,6.00
2022-10-21T13:50:33.688Z,5.97
2022-10-21T13:55:36.862Z,5.30
2022-10-21T14:00:40.002Z,4.47
2022-10-21T14:05:49.880Z,5.20
2022-10-21T14:10:53.858Z,5.30
2022-10-21T14:15:57.410Z,5.37
2022-10-21T14:21:02.577Z,4.93
2022-10-21T14:26:08.242Z,5.30
2022-10-21T14:31:13.995Z,5.83
2022-10-21T14:36:22.689Z,5.60
2022-10-21T14:41:29.571Z,5.80
2022-10-21T14:46:40.542Z,6.50
2022-10-21T14:51:45.151Z,7.00
2022-10-21T14:56:48.269Z,7.33
2022-10-21T15:01:51.863Z,7.37
2022-10-21T15:07:02.709Z,7.07
2022-10-21T15:12:22.581Z,6.30
2022-10-21T15:17:25.871Z,5.80
2022-10-21T15:22:33.907Z,6.13
2022-10-21T15:27:42.673Z,6.37
2022-10-21T15:32:46.286Z,6.17
2022-10-21T15:37:51.449Z,5.93
2022-10-21T15:42:55.599Z,6.03
2022-10-21T15:47:58.704Z,5.77
2022-10-21T15:53:03.284Z,5.33
2022-10-21T15:58:06.608Z,5.87
2022-10-21T16:03:09.743Z,5.77
2022-10-21T16:08:14.662Z,5.40
2022-10-21T16:13:17.741Z,5.23
2022-10-21T16:18:20.842Z,5.03
2022-10-21T16:23:25.328Z,4.53
2022-10-21T16:28:28.482Z,6.43
2022-10-21T16:33:31.570Z,4.63
2022-10-21T16:38:36.450Z,6.07
2022-10-21T16:43:40.504Z,4.30
2022-10-21T16:48:44.552Z,4.47
2022-10-21T16:53:49.124Z,4.57
2022-10-21T16:58:52.728Z,6.50
2022-10-21T17:03:55.853Z,6.37
2022-10-21T17:09:00.365Z,4.90
2022-10-21T17:14:05.533Z,4.50
2022-10-21T17:19:08.666Z,4.80
2022-10-21T17:24:15.839Z,4.50
2022-10-21T17:29:18.957Z,5.13
2022-10-21T17:34:27.914Z,5.00
2022-10-21T17:39:32.465Z,4.37
2022-10-21T17:44:35.642Z,4.70
2022-10-21T17:49:39.146Z,4.87
2022-10-21T17:54:43.897Z,3.97
2022-10-21T17:59:50.353Z,4.50
2022-10-21T18:04:53.514Z,4.93
2022-10-21T18:09:58.047Z,5.30
2022-10-21T18:15:01.147Z,6.47
2022-10-21T18:20:04.492Z,4.97
2022-10-21T18:25:09.895Z,4.27
2022-10-21T18:30:13.370Z,4.93
2022-10-21T18:35:16.592Z,5.00
2022-10-21T18:40:21.283Z,4.83
2022-10-21T18:45:24.355Z,5.53
2022-10-21T18:50:27.790Z,5.70
2022-10-21T18:55:32.260Z,5.57
2022-10-21T19:00:35.544Z,5.43
2022-10-21T19:05:41.532Z,5.13
2022-10-21T19:10:47.372Z,5.10
2022-10-21T19:15:50.434Z,5.30
2022-10-21T19:20:55.838Z,4.80
2022-10-21T19:26:04.143Z,4.73
2022-10-21T19:31:07.772Z,4.37
2022-10-21T19:36:12.134Z,5.73
2022-10-21T19:41:19.044Z,5.03
2022-10-21T19:46:25.642Z,4.80
2022-10-21T19:51:29.265Z,5.87
2022-10-21T19:56:34.509Z,8.13
2022-10-21T20:01:37.957Z,7.40
2022-10-21T20:06:41.178Z,7.37
2022-10-21T20:11:45.823Z,5.47
2022-10-21T20:16:50.450Z,5.63
2022-10-21T20:21:53.604Z,4.63
2022-10-21T20:27:01.243Z,4.83
2022-10-21T20:32:05.613Z,4.80
2022-10-21T20:37:08.704Z,4.60
2022-10-21T20:42:13.181Z,4.37
2022-10-21T20:47:17.089Z,4.00
2022-10-21T20:52:23.108Z,3.70
2022-10-21T20:57:28.643Z,4.03
2022-10-21T21:02:31.825Z,3.77
2022-10-21T21:07:35.147Z,3.10
2022-10-21T21:12:39.827Z,3.20
2022-10-21T21:17:43.319Z,3.10
2022-10-21T21:22:46.681Z,3.43
2022-10-21T21:27:51.281Z,3.00
2022-10-21T21:32:54.428Z,3.23
2022-10-21T21:37:57.958Z,2.50
2022-10-21T21:43:02.591Z,2.63
2022-10-21T21:48:06.241Z,2.93
2022-10-21T21:53:11.540Z,2.83
2022-10-21T21:58:16.033Z,3.20
2022-10-21T22:03:21.535Z,3.07
2022-10-21T22:08:24.769Z,3.00
2022-10-21T22:13:29.235Z,4.20
2022-10-21T22:18:32.343Z,4.10
2022-10-21T22:23:36.191Z,3.73
2022-10-21T22:28:40.957Z,3.63
2022-10-21T22:38:47.684Z,3.90
2022-10-21T22:43:52.135Z,4.17
2022-10-21T22:48:55.222Z,3.60
2022-10-21T22:53:58.520Z,3.70
2022-10-21T22:59:03.004Z,4.23
2022-10-21T23:04:06.553Z,3.63
2022-10-21T23:09:09.753Z,3.27
2022-10-21T23:14:14.269Z,3.50
2022-10-21T23:19:17.368Z,3.37
2022-10-21T23:24:20.477Z,3.40
2022-10-21T23:29:24.897Z,3.63
2022-10-21T23:34:28.034Z,3.80
2022-10-21T23:39:31.213Z,3.70
2022-10-21T23:44:35.643Z,3.10
2022-10-21T23:49:38.815Z,2.83
2022-10-21T23:54:41.982Z,3.13
2022-10-21T23:59:46.696Z,2.60
